createdAt,value
2019-04-30T00:01:27.810Z,11.60
2019-04-30T00:02:45.494Z,13.28
2019-04-30T00:04:00.233Z,13.68
2019-04-30T00:05:15.129Z,14.40
2019-04-30T00:06:34.689Z,13.20
2019-04-30T00:07:43.123Z,14.43
2019-04-30T00:08:57.726Z,13.35
2019-04-30T00:10:10.971Z,13.83
2019-04-30T00:11:25.110Z,13.15
2019-04-30T00:12:39.670Z,13.45
2019-04-30T00:13:55.325Z,14.45
2019-04-30T00:15:10.958Z,13.40
2019-04-30T00:16:22.563Z,14.87
2019-04-30T00:17:35.939Z,14.38
2019-04-30T00:18:58.137Z,15.08
2019-04-30T00:20:05.283Z,14.23
2019-04-30T00:21:18.900Z,16.20
2019-04-30T00:22:34.345Z,15.72
2019-04-30T00:23:47.029Z,13.68
2019-04-30T00:25:00.318Z,16.00
2019-04-30T00:26:17.047Z,15.63
2019-04-30T00:27:30.120Z,16.15
2019-04-30T00:28:46.268Z,16.10
2019-04-30T00:30:00.423Z,15.28
2019-04-30T00:31:17.359Z,17.07
2019-04-30T00:32:28.424Z,17.23
2019-04-30T00:33:41.500Z,16.32
2019-04-30T00:34:55.640Z,16.05
2019-04-30T00:36:09.596Z,17.27
2019-04-30T00:37:22.676Z,17.25
2019-04-30T00:38:37.884Z,15.45
2019-04-30T00:39:51.383Z,17.32
2019-04-30T00:41:06.933Z,18.27
2019-04-30T00:42:24.521Z,17.15
2019-04-30T00:43:37.469Z,16.67
2019-04-30T00:44:49.839Z,16.40
2019-04-30T00:46:04.904Z,18.98
2019-04-30T00:47:17.960Z,17.50
2019-04-30T00:48:31.316Z,18.55
2019-04-30T00:49:44.875Z,16.97
2019-04-30T00:50:59.503Z,19.62
2019-04-30T00:52:12.591Z,18.90
2019-04-30T00:53:26.206Z,19.12
2019-04-30T00:54:39.660Z,17.90
2019-04-30T00:55:52.736Z,18.20
2019-04-30T00:57:07.660Z,18.57
2019-04-30T00:58:28.543Z,18.45
2019-04-30T00:59:39.816Z,18.65
2019-04-30T01:00:52.333Z,18.55
2019-04-30T01:02:20.122Z,18.07
2019-04-30T01:03:32.651Z,18.07
2019-04-30T01:04:47.391Z,17.92
2019-04-30T01:06:00.543Z,17.67
2019-04-30T01:07:15.480Z,18.65
2019-04-30T01:08:28.804Z,18.40
2019-04-30T01:09:46.544Z,18.95
2019-04-30T01:10:59.753Z,17.92
2019-04-30T01:12:11.832Z,17.55
2019-04-30T01:13:24.997Z,19.27
2019-04-30T01:14:38.615Z,20.00
2019-04-30T01:15:52.614Z,20.25
2019-04-30T01:17:08.904Z,19.02
2019-04-30T01:18:23.613Z,18.98
2019-04-30T01:19:35.389Z,19.30
2019-04-30T01:20:48.779Z,19.77
2019-04-30T01:22:01.946Z,20.37
2019-04-30T01:23:15.700Z,18.80
2019-04-30T01:24:31.669Z,19.48
2019-04-30T01:25:48.007Z,19.25
2019-04-30T01:27:00.804Z,20.00
2019-04-30T01:28:16.269Z,19.05
2019-04-30T01:29:31.121Z,19.65
2019-04-30T01:30:43.447Z,19.40
2019-04-30T01:31:58.542Z,18.40
2019-04-30T01:33:11.940Z,18.55
2019-04-30T01:34:25.038Z,19.62
2019-04-30T01:35:40.477Z,18.95
2019-04-30T01:36:52.983Z,17.65
2019-04-30T01:38:11.132Z,18.73
2019-04-30T01:39:23.711Z,19.23
2019-04-30T01:40:35.911Z,19.05
2019-04-30T01:41:48.984Z,19.37
2019-04-30T01:43:02.073Z,18.57
2019-04-30T01:44:15.425Z,19.32
2019-04-30T01:45:31.666Z,18.62
2019-04-30T01:46:48.232Z,18.20
2019-04-30T01:48:00.706Z,18.65
2019-04-30T01:49:13.012Z,18.42
2019-04-30T01:50:26.120Z,19.65
2019-04-30T01:51:39.201Z,19.25
2019-04-30T01:52:52.296Z,19.40
2019-04-30T01:54:05.388Z,20.37
2019-04-30T01:55:20.141Z,19.27
2019-04-30T01:56:34.876Z,17.75
2019-04-30T01:57:49.591Z,17.45
2019-04-30T01:59:19.239Z,18.85
2019-04-30T02:00:34.025Z,17.32
2019-04-30T02:01:48.778Z,19.55
2019-04-30T02:03:01.864Z,18.40
2019-04-30T02:04:15.080Z,19.25
2019-04-30T02:05:28.794Z,19.87
2019-04-30T02:06:41.931Z,19.95
2019-04-30T02:07:55.096Z,19.62
2019-04-30T02:09:09.142Z,20.40
2019-04-30T02:10:22.361Z,20.80
2019-04-30T02:11:35.441Z,20.08
2019-04-30T02:12:49.368Z,19.57
2019-04-30T02:14:02.584Z,21.02
2019-04-30T02:15:15.670Z,20.80
2019-04-30T02:16:29.065Z,22.45
2019-04-30T02:17:42.209Z,22.22
2019-04-30T02:18:55.300Z,22.50
2019-04-30T02:20:08.890Z,21.00
2019-04-30T02:21:23.328Z,21.65
2019-04-30T02:22:36.420Z,21.33
2019-04-30T02:23:49.516Z,23.38
2019-04-30T02:25:02.669Z,22.67
2019-04-30T02:26:15.744Z,22.37
2019-04-30T02:27:29.439Z,22.15
2019-04-30T02:28:42.689Z,21.25
2019-04-30T02:29:55.980Z,21.87
2019-04-30T02:31:09.247Z,22.42
2019-04-30T02:32:22.527Z,21.82
2019-04-30T02:33:37.176Z,22.98
2019-04-30T02:34:59.843Z,25.27
2019-04-30T02:36:23.225Z,23.22
2019-04-30T02:37:40.405Z,22.32
2019-04-30T02:38:54.404Z,24.18
2019-04-30T02:40:09.965Z,22.95
2019-04-30T02:41:22.567Z,23.67
2019-04-30T02:42:35.816Z,24.18
2019-04-30T02:43:49.703Z,24.30
2019-04-30T02:45:03.840Z,24.60
2019-04-30T02:46:19.236Z,24.87
2019-04-30T02:47:32.108Z,25.05
2019-04-30T02:48:45.184Z,26.17
2019-04-30T02:50:11.464Z,25.17
2019-04-30T02:51:13.162Z,25.12
2019-04-30T02:52:26.321Z,25.55
2019-04-30T02:53:50.456Z,25.23
2019-04-30T02:55:03.884Z,25.20
2019-04-30T02:56:19.616Z,25.60
2019-04-30T02:57:31.792Z,26.55
2019-04-30T02:58:44.867Z,24.98
2019-04-30T03:00:02.596Z,25.95
2019-04-30T03:01:15.689Z,26.35
2019-04-30T03:02:29.217Z,27.52
2019-04-30T03:03:42.654Z,26.33
2019-04-30T03:04:55.900Z,24.57
2019-04-30T03:06:11.397Z,25.52
2019-04-30T03:07:23.800Z,25.85
2019-04-30T03:08:36.885Z,25.70
2019-04-30T03:09:50.069Z,26.48
2019-04-30T03:11:03.233Z,26.45
2019-04-30T03:12:16.325Z,27.00
2019-04-30T03:13:30.083Z,27.80
2019-04-30T03:14:43.176Z,26.25
2019-04-30T03:15:56.254Z,28.23
2019-04-30T03:17:17.020Z,27.07
2019-04-30T03:18:31.812Z,28.15
2019-04-30T03:19:50.050Z,27.10
2019-04-30T03:21:09.628Z,27.20
2019-04-30T03:22:23.635Z,25.43
2019-04-30T03:23:38.953Z,25.62
2019-04-30T03:24:51.536Z,26.20
2019-04-30T03:26:04.616Z,26.48
2019-04-30T03:27:20.474Z,27.37
2019-04-30T03:28:32.610Z,26.20
2019-04-30T03:29:45.690Z,27.17
2019-04-30T03:31:04.021Z,27.37
2019-04-30T03:32:14.443Z,27.48
2019-04-30T03:33:32.070Z,27.73
2019-04-30T03:34:42.854Z,27.67
2019-04-30T03:35:56.118Z,27.15
2019-04-30T03:37:09.928Z,28.02
2019-04-30T03:38:23.251Z,29.00
2019-04-30T03:39:36.398Z,26.37
2019-04-30T03:40:50.290Z,29.07
2019-04-30T03:42:03.637Z,28.12
2019-04-30T03:43:16.731Z,29.25
2019-04-30T03:44:32.453Z,28.70
2019-04-30T03:45:44.610Z,29.32
2019-04-30T03:46:59.320Z,28.00
2019-04-30T03:48:12.660Z,27.73
2019-04-30T03:49:25.750Z,28.45
2019-04-30T03:50:50.442Z,26.95
2019-04-30T03:51:53.631Z,28.75
2019-04-30T03:53:06.729Z,27.93
2019-04-30T03:54:19.805Z,29.02
2019-04-30T03:55:32.886Z,28.40
2019-04-30T03:56:45.973Z,26.55
2019-04-30T03:58:00.199Z,28.00
2019-04-30T03:59:13.440Z,27.67
2019-04-30T04:00:33.929Z,26.37
2019-04-30T04:01:59.559Z,27.93
2019-04-30T04:03:12.448Z,28.83
2019-04-30T04:04:35.940Z,28.77
2019-04-30T04:05:50.661Z,27.25
2019-04-30T04:07:17.096Z,28.73
2019-04-30T04:08:31.832Z,27.02
2019-04-30T04:10:01.771Z,28.30
2019-04-30T04:11:16.590Z,26.73
2019-04-30T04:12:32.765Z,27.65
2019-04-30T04:13:45.593Z,27.32
2019-04-30T04:15:00.740Z,28.20
2019-04-30T04:16:13.481Z,28.23
2019-04-30T04:17:26.639Z,28.98
2019-04-30T04:18:40.324Z,28.45
2019-04-30T04:19:53.525Z,26.70
2019-04-30T04:21:11.679Z,28.12
2019-04-30T04:22:21.460Z,28.30
2019-04-30T04:23:34.565Z,28.95
2019-04-30T04:24:50.103Z,26.85
2019-04-30T04:26:02.724Z,28.15
2019-04-30T04:27:15.796Z,28.10
2019-04-30T04:28:29.959Z,26.50
2019-04-30T04:29:43.256Z,26.37
2019-04-30T04:30:56.336Z,28.02
2019-04-30T04:32:10.662Z,27.27
2019-04-30T04:33:23.897Z,26.55
2019-04-30T04:34:36.982Z,29.07
2019-04-30T04:35:50.182Z,26.75
2019-04-30T04:37:03.329Z,27.67
2019-04-30T04:38:16.419Z,26.62
2019-04-30T04:39:29.839Z,25.45
2019-04-30T04:40:42.947Z,26.65
2019-04-30T04:41:56.028Z,26.95
2019-04-30T04:43:10.408Z,25.25
2019-04-30T04:44:23.680Z,27.65
2019-04-30T04:45:36.761Z,25.27
2019-04-30T04:46:50.631Z,27.75
2019-04-30T04:48:03.915Z,27.35
2019-04-30T04:49:17.005Z,28.07
2019-04-30T04:50:30.484Z,29.27
2019-04-30T04:51:43.621Z,24.32
2019-04-30T04:52:59.269Z,25.88
2019-04-30T04:54:11.552Z,25.17
2019-04-30T04:55:24.696Z,25.40
2019-04-30T04:56:39.863Z,25.55
2019-04-30T04:57:52.588Z,26.27
2019-04-30T04:59:05.679Z,26.10
2019-04-30T05:00:19.381Z,27.13
2019-04-30T05:01:32.740Z,25.52
2019-04-30T05:02:49.621Z,26.85
2019-04-30T05:04:02.274Z,27.22
2019-04-30T05:05:15.359Z,25.52
2019-04-30T05:06:29.885Z,26.55
2019-04-30T05:07:43.151Z,28.12
2019-04-30T05:08:56.242Z,24.95
2019-04-30T05:10:09.452Z,25.45
2019-04-30T05:11:22.616Z,26.15
2019-04-30T05:12:37.944Z,26.93
2019-04-30T05:13:51.073Z,26.57
2019-04-30T05:15:04.737Z,24.10
2019-04-30T05:16:19.091Z,26.07
2019-04-30T05:17:32.365Z,25.70
2019-04-30T05:18:45.459Z,23.15
2019-04-30T05:19:58.739Z,25.35
2019-04-30T05:21:12.095Z,27.35
2019-04-30T05:22:25.176Z,27.30
2019-04-30T05:23:41.132Z,27.42
2019-04-30T05:24:53.442Z,26.33
2019-04-30T05:26:08.447Z,24.63
2019-04-30T05:27:21.384Z,25.02
2019-04-30T05:28:34.464Z,24.02
2019-04-30T05:29:47.583Z,23.77
2019-04-30T05:31:00.674Z,25.02
2019-04-30T05:32:13.815Z,24.70
2019-04-30T05:33:28.610Z,24.40
2019-04-30T05:34:41.872Z,25.00
2019-04-30T05:35:54.959Z,25.15
2019-04-30T05:37:09.004Z,24.02
2019-04-30T05:38:22.190Z,26.65
2019-04-30T05:39:35.286Z,24.18
2019-04-30T05:40:49.570Z,25.27
2019-04-30T05:42:02.724Z,25.40
2019-04-30T05:43:15.796Z,26.52
2019-04-30T05:44:29.851Z,23.32
2019-04-30T05:45:43.055Z,24.57
2019-04-30T05:46:56.143Z,24.40
2019-04-30T05:48:09.227Z,24.82
2019-04-30T05:49:22.304Z,23.38
2019-04-30T05:50:35.408Z,23.70
2019-04-30T05:51:55.407Z,24.70
2019-04-30T05:53:03.288Z,24.52
2019-04-30T05:54:16.377Z,23.80
2019-04-30T05:55:29.546Z,24.18
2019-04-30T05:56:42.860Z,24.75
2019-04-30T05:58:01.257Z,24.98
2019-04-30T05:59:13.529Z,24.30
2019-04-30T06:00:30.336Z,24.35
2019-04-30T06:01:48.091Z,25.12
2019-04-30T06:02:56.388Z,24.35
2019-04-30T06:04:09.671Z,24.27
2019-04-30T06:05:22.843Z,24.45
2019-04-30T06:06:35.999Z,25.62
2019-04-30T06:07:51.904Z,25.88
2019-04-30T06:09:12.595Z,24.52
2019-04-30T06:10:39.628Z,26.00
2019-04-30T06:12:11.480Z,24.85
2019-04-30T06:13:26.295Z,23.32
2019-04-30T06:14:55.857Z,24.55
2019-04-30T06:16:16.495Z,23.90
2019-04-30T06:17:30.645Z,25.82
2019-04-30T06:18:43.721Z,23.73
2019-04-30T06:19:58.807Z,24.55
2019-04-30T06:21:11.784Z,23.77
2019-04-30T06:22:25.280Z,23.00
2019-04-30T06:23:39.376Z,24.00
2019-04-30T06:24:52.708Z,23.38
2019-04-30T06:26:09.645Z,21.02
2019-04-30T06:27:20.754Z,22.37
2019-04-30T06:28:35.512Z,22.00
2019-04-30T06:29:49.002Z,22.80
2019-04-30T06:31:02.275Z,23.60
2019-04-30T06:32:21.256Z,22.37
2019-04-30T06:33:30.192Z,23.30
2019-04-30T06:34:43.282Z,22.55
2019-04-30T06:36:02.900Z,23.15
2019-04-30T06:37:16.009Z,22.50
2019-04-30T06:38:29.271Z,21.97
2019-04-30T06:39:42.367Z,22.73
2019-04-30T06:40:55.453Z,22.50
2019-04-30T06:42:12.990Z,22.42
2019-04-30T06:43:25.872Z,20.77
2019-04-30T06:44:41.881Z,21.73
2019-04-30T06:47:15.297Z,20.50
2019-04-30T06:48:31.620Z,20.20
2019-04-30T06:49:44.756Z,22.62
2019-04-30T06:51:03.496Z,21.60
2019-04-30T06:52:20.637Z,21.95
2019-04-30T06:53:31.442Z,20.77
2019-04-30T06:54:44.511Z,20.37
2019-04-30T06:55:58.990Z,21.42
2019-04-30T06:57:12.252Z,21.90
2019-04-30T06:58:25.406Z,21.30
2019-04-30T06:59:39.535Z,20.95
2019-04-30T07:00:52.895Z,22.15
2019-04-30T07:02:05.985Z,20.88
2019-04-30T07:03:19.294Z,20.27
2019-04-30T07:04:32.416Z,19.80
2019-04-30T07:05:45.568Z,21.02
2019-04-30T07:06:59.012Z,21.50
2019-04-30T07:08:39.110Z,21.20
2019-04-30T07:09:53.198Z,22.45
2019-04-30T07:11:21.869Z,22.42
2019-04-30T07:12:39.353Z,22.32
2019-04-30T07:13:52.583Z,19.90
2019-04-30T07:15:06.123Z,21.73
2019-04-30T07:16:19.236Z,20.77
2019-04-30T07:17:32.315Z,19.75
2019-04-30T07:18:45.396Z,20.70
2019-04-30T07:19:59.651Z,20.37
2019-04-30T07:21:12.996Z,20.30
2019-04-30T07:22:37.570Z,21.60
2019-04-30T07:23:40.905Z,19.15
2019-04-30T07:24:53.980Z,19.40
2019-04-30T07:26:08.926Z,22.05
2019-04-30T07:27:24.187Z,19.12
2019-04-30T07:28:44.837Z,21.15
2019-04-30T07:29:51.756Z,20.68
2019-04-30T07:31:11.350Z,19.45
2019-04-30T07:32:19.882Z,20.80
2019-04-30T07:33:33.004Z,20.95
2019-04-30T07:34:46.085Z,18.57
2019-04-30T07:36:01.776Z,19.37
2019-04-30T07:37:21.034Z,19.98
2019-04-30T07:38:29.762Z,19.35
2019-04-30T07:39:42.845Z,20.57
2019-04-30T07:40:56.033Z,19.73
2019-04-30T07:42:09.305Z,19.73
2019-04-30T07:43:22.484Z,19.48
2019-04-30T07:44:36.675Z,18.85
2019-04-30T07:45:49.933Z,18.98
2019-04-30T07:47:03.031Z,17.50
2019-04-30T07:48:16.113Z,18.00
2019-04-30T07:49:46.441Z,16.65
2019-04-30T07:50:44.412Z,18.98
2019-04-30T07:52:00.799Z,19.07
2019-04-30T07:53:13.145Z,20.00
2019-04-30T07:54:26.529Z,19.73
2019-04-30T07:55:39.604Z,19.35
2019-04-30T07:56:52.751Z,19.05
2019-04-30T07:58:05.851Z,18.85
2019-04-30T07:59:20.272Z,18.00
2019-04-30T08:00:33.440Z,18.87
2019-04-30T08:03:20.471Z,18.82
2019-04-30T08:04:35.609Z,18.50
2019-04-30T08:05:50.446Z,17.60
2019-04-30T08:07:05.033Z,17.32
2019-04-30T08:08:24.967Z,18.87
2019-04-30T08:09:35.580Z,18.32
2019-04-30T08:09:39.711Z,17.95
2019-04-30T08:10:50.787Z,15.23
2019-04-30T08:12:02.683Z,16.57
2019-04-30T08:13:16.582Z,16.60
2019-04-30T08:14:30.062Z,16.32
2019-04-30T08:15:43.167Z,16.07
2019-04-30T08:16:56.249Z,14.65
2019-04-30T08:18:09.339Z,15.10
2019-04-30T08:19:22.426Z,14.70
2019-04-30T08:20:35.514Z,14.60
2019-04-30T08:21:48.687Z,15.15
2019-04-30T08:23:13.367Z,14.73
2019-04-30T08:24:16.565Z,17.07
2019-04-30T08:25:29.669Z,17.25
2019-04-30T08:26:42.915Z,16.95
2019-04-30T08:27:56.037Z,14.90
2019-04-30T08:29:09.557Z,15.35
2019-04-30T08:30:26.668Z,14.55
2019-04-30T08:31:40.686Z,16.50
2019-04-30T08:32:52.404Z,14.20
2019-04-30T08:34:05.475Z,15.05
2019-04-30T08:35:19.700Z,14.18
2019-04-30T08:36:33.225Z,14.33
2019-04-30T08:37:46.386Z,13.40
2019-04-30T08:38:59.807Z,13.95
2019-04-30T08:40:12.952Z,14.83
2019-04-30T08:41:26.083Z,14.38
2019-04-30T08:42:40.342Z,14.00
2019-04-30T08:43:53.628Z,12.45
2019-04-30T08:45:06.725Z,13.05
2019-04-30T08:46:19.821Z,13.80
2019-04-30T08:47:32.908Z,12.80
2019-04-30T08:48:50.516Z,13.45
2019-04-30T08:50:02.586Z,13.48
2019-04-30T08:51:15.596Z,13.30
2019-04-30T08:52:30.400Z,14.05
2019-04-30T08:53:43.609Z,11.88
2019-04-30T08:54:56.706Z,11.97
2019-04-30T08:56:10.197Z,13.18
2019-04-30T08:57:23.297Z,12.95
2019-04-30T08:58:36.373Z,12.13
2019-04-30T08:59:49.570Z,14.35
2019-04-30T09:01:02.720Z,13.35
2019-04-30T09:02:16.666Z,13.60
2019-04-30T09:03:29.860Z,11.35
2019-04-30T09:04:42.956Z,11.53
2019-04-30T09:05:58.961Z,11.70
2019-04-30T09:07:12.138Z,11.97
2019-04-30T09:08:25.216Z,12.53
2019-04-30T09:09:38.962Z,13.55
2019-04-30T09:10:52.071Z,13.75
2019-04-30T09:12:05.157Z,12.18
2019-04-30T09:13:19.187Z,11.63
2019-04-30T09:14:32.388Z,11.75
2019-04-30T09:15:45.496Z,11.83
2019-04-30T09:16:59.578Z,12.53
2019-04-30T09:18:13.400Z,12.55
2019-04-30T09:19:26.485Z,11.10
2019-04-30T09:20:40.943Z,12.07
2019-04-30T09:21:54.124Z,11.35
2019-04-30T09:23:07.223Z,11.57
2019-04-30T09:24:20.307Z,11.43
2019-04-30T09:25:33.387Z,11.22
2019-04-30T09:26:46.477Z,11.65
2019-04-30T09:27:59.564Z,9.88
2019-04-30T09:29:12.654Z,10.95
2019-04-30T09:30:25.772Z,11.43
2019-04-30T09:31:40.841Z,11.50
2019-04-30T09:32:53.640Z,10.48
2019-04-30T09:34:16.724Z,8.98
2019-04-30T09:35:21.526Z,10.93
2019-04-30T09:36:34.600Z,10.68
2019-04-30T09:37:49.606Z,10.90
2019-04-30T09:39:02.504Z,10.93
2019-04-30T09:40:18.542Z,10.60
2019-04-30T09:41:30.473Z,11.00
2019-04-30T09:42:43.550Z,11.08
2019-04-30T09:43:56.629Z,11.57
2019-04-30T09:45:09.741Z,11.60
2019-04-30T09:46:26.965Z,11.03
2019-04-30T09:47:37.620Z,12.23
2019-04-30T09:48:50.935Z,11.45
2019-04-30T09:50:09.014Z,12.75
2019-04-30T09:51:24.450Z,14.18
2019-04-30T09:52:39.109Z,14.68
2019-04-30T09:53:59.119Z,15.18
2019-04-30T09:55:06.356Z,12.37
2019-04-30T09:56:19.508Z,14.53
2019-04-30T09:57:32.588Z,13.30
2019-04-30T09:58:45.663Z,13.40
2019-04-30T10:00:00.467Z,12.80
2019-04-30T10:01:13.783Z,14.70
2019-04-30T10:02:28.942Z,13.48
2019-04-30T10:03:42.247Z,14.33
2019-04-30T10:04:55.935Z,15.23
2019-04-30T10:06:09.280Z,13.80
2019-04-30T10:07:22.453Z,13.83
2019-04-30T10:08:47.475Z,14.53
2019-04-30T10:09:50.987Z,14.63
2019-04-30T10:11:14.892Z,13.58
2019-04-30T10:12:29.386Z,13.15
2019-04-30T10:13:42.638Z,14.80
2019-04-30T10:14:55.736Z,14.28
2019-04-30T10:16:27.077Z,13.98
2019-04-30T10:17:41.828Z,14.18
2019-04-30T10:18:54.908Z,16.12
2019-04-30T10:20:08.456Z,16.00
2019-04-30T10:21:21.541Z,15.18
2019-04-30T10:22:34.638Z,14.47
2019-04-30T10:23:47.720Z,15.38
2019-04-30T10:25:00.809Z,13.93
2019-04-30T10:26:13.906Z,15.03
2019-04-30T10:27:29.201Z,17.32
2019-04-30T10:28:42.899Z,15.35
2019-04-30T10:29:56.023Z,15.68
2019-04-30T10:31:10.291Z,15.20
2019-04-30T10:32:23.480Z,15.60
2019-04-30T10:33:38.472Z,14.43
2019-04-30T10:34:51.372Z,15.25
2019-04-30T10:36:04.450Z,15.23
2019-04-30T10:37:18.930Z,16.75
2019-04-30T10:38:32.176Z,17.98
2019-04-30T10:39:45.256Z,17.55
2019-04-30T10:40:58.766Z,16.40
2019-04-30T10:42:11.988Z,16.52
2019-04-30T10:43:25.111Z,18.62
2019-04-30T10:44:38.192Z,19.27
2019-04-30T10:45:51.268Z,17.17
2019-04-30T10:47:04.340Z,18.32
2019-04-30T10:48:17.432Z,16.35
2019-04-30T10:49:30.542Z,15.15
2019-04-30T10:50:43.634Z,15.78
2019-04-30T10:51:56.975Z,16.15
2019-04-30T10:53:12.204Z,16.50
2019-04-30T10:54:26.482Z,15.90
2019-04-30T10:55:39.711Z,14.85
2019-04-30T10:56:52.852Z,12.88
2019-04-30T10:58:05.928Z,11.83
2019-04-30T10:59:19.015Z,12.13
2019-04-30T11:00:39.262Z,11.78
2019-04-30T11:01:52.344Z,11.65
2019-04-30T11:03:17.201Z,11.88
2019-04-30T11:04:20.229Z,10.25
2019-04-30T11:05:33.376Z,11.12
2019-04-30T11:06:46.473Z,12.70
2019-04-30T11:07:59.600Z,12.15
2019-04-30T11:09:12.709Z,12.68
2019-04-30T11:10:25.791Z,11.80
2019-04-30T11:11:39.738Z,9.65
2019-04-30T11:12:52.956Z,12.15
2019-04-30T11:14:06.036Z,11.43
2019-04-30T11:15:20.791Z,12.30
2019-04-30T11:16:33.987Z,12.33
2019-04-30T11:17:47.217Z,12.05
2019-04-30T11:19:01.872Z,13.28
2019-04-30T11:20:15.125Z,14.15
2019-04-30T11:21:29.592Z,14.23
2019-04-30T11:22:42.942Z,14.73
2019-04-30T11:23:56.182Z,13.75
2019-04-30T11:25:10.003Z,13.98
2019-04-30T11:26:23.877Z,13.93
2019-04-30T11:27:38.214Z,13.50
2019-04-30T11:28:52.274Z,15.20
2019-04-30T11:30:18.467Z,14.58
2019-04-30T11:31:25.079Z,15.50
2019-04-30T11:32:38.632Z,16.48
2019-04-30T11:33:52.807Z,16.37
2019-04-30T11:35:06.064Z,16.87
2019-04-30T11:36:19.387Z,15.10
2019-04-30T11:37:32.507Z,16.60
2019-04-30T11:38:45.593Z,15.90
2019-04-30T11:39:58.679Z,16.30
2019-04-30T11:41:11.760Z,16.37
2019-04-30T11:42:24.881Z,15.90
2019-04-30T11:43:39.440Z,16.57
2019-04-30T11:44:52.643Z,16.23
2019-04-30T11:46:08.646Z,18.92
2019-04-30T11:47:25.104Z,15.83
2019-04-30T11:48:38.744Z,15.48
2019-04-30T11:49:51.918Z,14.98
2019-04-30T11:51:05.000Z,15.53
2019-04-30T11:52:19.463Z,16.27
2019-04-30T11:53:32.800Z,15.78
2019-04-30T11:54:51.308Z,16.32
2019-04-30T11:56:01.069Z,16.52
2019-04-30T11:57:14.361Z,16.37
2019-04-30T11:58:30.399Z,16.82
2019-04-30T11:59:49.059Z,16.75
2019-04-30T12:01:02.380Z,15.98
2019-04-30T12:02:21.186Z,16.50
2019-04-30T12:03:34.589Z,17.57
2019-04-30T12:04:49.432Z,17.37
2019-04-30T12:06:02.809Z,16.10
2019-04-30T12:07:17.754Z,15.18
2019-04-30T12:08:49.218Z,15.05
2019-04-30T12:10:10.219Z,15.85
2019-04-30T12:11:39.924Z,15.53
2019-04-30T12:12:53.204Z,15.65
2019-04-30T12:14:06.476Z,16.65
2019-04-30T12:15:19.745Z,15.58
2019-04-30T12:16:33.729Z,15.83
2019-04-30T12:17:47.221Z,16.32
2019-04-30T12:19:00.712Z,16.90
2019-04-30T12:20:14.064Z,15.00
2019-04-30T12:21:27.332Z,16.17
2019-04-30T12:22:40.621Z,15.95
2019-04-30T12:23:53.885Z,16.65
2019-04-30T12:25:07.231Z,14.90
2019-04-30T12:26:20.492Z,14.50
2019-04-30T12:27:33.777Z,15.00
2019-04-30T12:28:47.042Z,15.48
2019-04-30T12:30:00.310Z,13.75
2019-04-30T12:31:13.579Z,16.50
2019-04-30T12:32:26.864Z,15.88
2019-04-30T12:33:40.134Z,17.35
2019-04-30T12:34:53.403Z,15.58
2019-04-30T12:36:06.672Z,17.10
2019-04-30T12:37:19.936Z,15.88
2019-04-30T12:38:33.216Z,16.82
2019-04-30T12:39:46.485Z,16.00
2019-04-30T12:40:59.767Z,16.67
2019-04-30T12:42:14.728Z,15.88
2019-04-30T12:43:28.001Z,15.98
2019-04-30T12:44:41.271Z,17.07
2019-04-30T12:46:02.743Z,16.97
2019-04-30T12:47:09.720Z,16.35
2019-04-30T12:48:29.426Z,15.88
2019-04-30T12:49:47.269Z,15.70
2019-04-30T12:51:02.184Z,16.20
2019-04-30T12:52:17.096Z,15.93
2019-04-30T12:53:49.860Z,16.50
2019-04-30T12:55:22.582Z,15.68
2019-04-30T12:56:40.305Z,14.40
2019-04-30T12:57:58.721Z,15.53
2019-04-30T12:59:10.293Z,15.38
2019-04-30T13:00:24.931Z,15.28
2019-04-30T13:01:39.885Z,14.23
2019-04-30T13:02:53.352Z,13.62
2019-04-30T13:04:06.628Z,15.90
2019-04-30T13:05:19.975Z,15.55
2019-04-30T13:06:33.717Z,14.07
2019-04-30T13:07:49.408Z,14.30
2019-04-30T13:09:02.768Z,15.13
2019-04-30T13:10:17.244Z,15.23
2019-04-30T13:11:31.472Z,14.20
2019-04-30T13:12:45.875Z,15.03
2019-04-30T13:14:00.352Z,13.95
2019-04-30T13:15:14.018Z,13.18
2019-04-30T13:16:29.156Z,11.75
2019-04-30T13:17:42.295Z,13.35
2019-04-30T13:18:55.578Z,12.78
2019-04-30T13:20:18.797Z,12.23
2019-04-30T13:21:24.493Z,11.78
2019-04-30T13:22:38.896Z,12.07
2019-04-30T13:23:52.210Z,12.25
2019-04-30T13:25:05.550Z,12.93
2019-04-30T13:26:18.959Z,13.08
2019-04-30T13:27:33.857Z,13.48
2019-04-30T13:28:54.748Z,13.88
2019-04-30T13:30:12.444Z,12.70
2019-04-30T13:31:25.719Z,12.73
2019-04-30T13:32:52.364Z,13.38
2019-04-30T13:34:23.296Z,12.90
2019-04-30T13:35:36.575Z,13.03
2019-04-30T13:36:49.840Z,12.73
2019-04-30T13:38:07.696Z,12.40
2019-04-30T13:39:27.016Z,12.13
2019-04-30T13:40:51.524Z,12.88
2019-04-30T13:42:15.890Z,12.98
2019-04-30T13:43:40.223Z,13.88
2019-04-30T13:44:56.468Z,13.15
2019-04-30T13:46:09.894Z,11.90
2019-04-30T13:47:23.173Z,12.07
2019-04-30T13:48:36.435Z,13.08
2019-04-30T13:49:49.710Z,12.28
2019-04-30T13:51:02.995Z,11.85
2019-04-30T13:52:16.265Z,12.23
2019-04-30T13:53:30.279Z,12.40
2019-04-30T13:54:43.555Z,12.68
2019-04-30T13:55:58.846Z,11.38
2019-04-30T13:57:12.410Z,13.18
2019-04-30T13:58:25.676Z,11.80
2019-04-30T13:59:38.948Z,12.37
2019-04-30T14:00:52.234Z,12.03
2019-04-30T14:02:05.524Z,12.00
2019-04-30T14:03:32.580Z,14.03
2019-04-30T14:04:56.452Z,13.80
2019-04-30T14:06:11.394Z,12.98
2019-04-30T14:07:35.087Z,12.33
2019-04-30T14:08:49.998Z,12.18
2019-04-30T14:10:04.009Z,12.53
2019-04-30T14:11:18.986Z,13.13
2019-04-30T14:12:33.973Z,13.60
2019-04-30T14:13:47.254Z,14.47
2019-04-30T14:15:00.516Z,14.78
2019-04-30T14:16:13.852Z,13.93
2019-04-30T14:17:27.200Z,13.20
2019-04-30T14:18:40.472Z,13.25
2019-04-30T14:19:53.744Z,14.15
2019-04-30T14:21:07.029Z,14.60
2019-04-30T14:22:20.319Z,13.32
2019-04-30T14:23:33.580Z,14.10
2019-04-30T14:24:46.855Z,15.18
2019-04-30T14:26:01.169Z,14.30
2019-04-30T14:27:14.558Z,13.43
2019-04-30T14:28:29.194Z,14.03
2019-04-30T14:29:42.598Z,14.00
2019-04-30T14:30:55.857Z,14.10
2019-04-30T14:32:09.212Z,14.03
2019-04-30T14:33:26.011Z,14.07
2019-04-30T14:34:39.370Z,13.53
2019-04-30T14:35:52.536Z,14.30
2019-04-30T14:37:05.823Z,14.25
2019-04-30T14:38:19.145Z,13.98
2019-04-30T14:39:32.634Z,14.18
2019-04-30T14:40:46.541Z,14.20
2019-04-30T14:42:00.967Z,14.83
2019-04-30T14:43:22.898Z,15.68
2019-04-30T14:44:37.304Z,15.08
2019-04-30T14:45:55.843Z,14.38
2019-04-30T14:47:23.755Z,15.30
2019-04-30T14:48:43.018Z,13.80
2019-04-30T14:50:10.382Z,14.13
2019-04-30T14:51:23.650Z,14.20
2019-04-30T14:52:40.232Z,14.47
2019-04-30T14:53:58.867Z,18.50
2019-04-30T14:55:18.723Z,16.95
2019-04-30T14:56:39.733Z,18.12
2019-04-30T14:57:54.638Z,14.47
2019-04-30T14:59:09.548Z,14.05
2019-04-30T15:00:33.468Z,13.98
2019-04-30T15:01:59.155Z,13.88
2019-04-30T15:03:19.450Z,14.30
2019-04-30T15:04:32.775Z,14.15
2019-04-30T15:05:50.905Z,14.53
2019-04-30T15:07:01.028Z,15.20
2019-04-30T15:08:14.301Z,14.10
2019-04-30T15:09:27.665Z,14.75
2019-04-30T15:10:40.931Z,14.28
2019-04-30T15:11:54.208Z,14.07
2019-04-30T15:13:09.587Z,13.50
2019-04-30T15:14:22.468Z,13.35
2019-04-30T15:15:35.763Z,12.65
2019-04-30T15:16:49.026Z,13.20
2019-04-30T15:18:02.296Z,12.18
2019-04-30T15:19:15.554Z,12.60
2019-04-30T15:20:29.641Z,12.75
2019-04-30T15:21:42.996Z,12.68
2019-04-30T15:22:58.732Z,12.73
2019-04-30T15:24:13.689Z,12.90
2019-04-30T15:25:34.348Z,12.10
2019-04-30T15:26:41.946Z,14.47
2019-04-30T15:27:55.239Z,13.48
2019-04-30T15:29:13.371Z,13.03
2019-04-30T15:30:23.485Z,12.60
2019-04-30T15:31:36.750Z,13.45
2019-04-30T15:32:51.656Z,12.60
2019-04-30T15:34:11.116Z,12.95
2019-04-30T15:35:24.541Z,13.40
2019-04-30T15:36:39.256Z,13.30
2019-04-30T15:37:55.077Z,11.38
2019-04-30T15:39:18.968Z,11.78
2019-04-30T15:40:32.238Z,12.95
2019-04-30T15:41:45.505Z,13.08
2019-04-30T15:43:02.415Z,12.13
2019-04-30T15:44:15.406Z,14.20
2019-04-30T15:45:29.207Z,14.13
2019-04-30T15:46:42.586Z,12.75
2019-04-30T15:47:55.858Z,13.08
2019-04-30T15:49:09.123Z,12.70
2019-04-30T15:50:22.392Z,12.58
2019-04-30T15:51:35.681Z,13.28
2019-04-30T15:52:48.946Z,13.50
2019-04-30T15:54:02.292Z,13.00
2019-04-30T15:55:15.568Z,13.53
2019-04-30T15:56:35.171Z,11.90
2019-04-30T15:58:01.588Z,11.38
2019-04-30T15:59:22.554Z,12.58
2019-04-30T16:00:35.819Z,13.08
2019-04-30T16:01:50.770Z,13.55
2019-04-30T16:03:09.514Z,12.30